CYSM

Fort Smith Airport

Fort Smith, Northwest Territories, Canada
TAF CYSM 141738Z 1418/1506 VRB03KT P6SM FEW090 BKN220 BECMG 1421/1423 08006KT FM150000 07006KT P6SM SCT050 BKN120 FM150300 06006KT 4SM -SN OVC030 RMK NXT FCST BY 150000Z
Issued Valid From Valid To
Dec-14 @ 17:38 UTC
(4 hours ago)
Dec-14 @ 18:00 UTC
(4 hours ago)
Dec-15 @ 06:00 UTC
(in 8 hours)
Expired Click to View Dec-14 @ 18:00 to Dec-14 @ 21:00
TAF CYSM 141738Z 1418/1506 VRB03KT P6SM FEW090 BKN220
Wind Visibility Clouds
Variable at 3 knots Greater than 6 miles
  • Few at 9,000' AGL
  • Broken at 22,000' AGL
Becoming Dec-14 @ 21:00 to Dec-15 @ 00:00
BECMG 1421/1423 08006KT
Wind Visibility Clouds
80° at 6 knots Greater than 6 miles
  • Few at 9,000' AGL
  • Broken at 22,000' AGL
From Dec-15 @ 00:00 to Dec-15 @ 03:00
FM150000 07006KT P6SM SCT050 BKN120
Wind Visibility Clouds
70° at 6 knots Greater than 6 miles
  • Scattered at 5,000' AGL
  • Broken at 12,000' AGL
From Dec-15 @ 03:00 to Dec-15 @ 06:00
FM150300 06006KT 4SM -SN OVC030 RMK NXT FCST BY 150000Z
Wind Visibility Clouds Conditions
60° at 6 knots 4 miles
  • Overcast at 3,000' AGL
  • Light Snow
TAF CYSM 141738Z 1418/1506 VRB03KT P6SM FEW090 BKN220 BECMG 1421/1423 08006KT FM150000 07006KT P6SM SCT050 BKN120 FM150300 06006KT 4SM -SN OVC030 RMK NXT FCST BY 150000Z
Issued Dec-14 @ 17:38 UTC
(4 hours ago)
Valid From Dec-14 @ 18:00 UTC
(4 hours ago)
Valid To Dec-15 @ 06:00 UTC
(in 8 hours)
Dec-14 @ 18:00 - Dec-14 @ 21:00
Wind Visibility
Variable at 3 knots Greater than 6 miles
Clouds
  • Few at 9,000' AGL
  • Broken at 22,000' AGL
Becoming Dec-14 @ 21:00 - Dec-15 @ 00:00
Wind Visibility
80° at 6 knots Greater than 6 miles
Clouds
  • Few at 9,000' AGL
  • Broken at 22,000' AGL
From Dec-15 @ 00:00 - Dec-15 @ 03:00
Wind Visibility
70° at 6 knots Greater than 6 miles
Clouds
  • Scattered at 5,000' AGL
  • Broken at 12,000' AGL
From Dec-15 @ 03:00 - Dec-15 @ 06:00
Wind Visibility
60° at 6 knots 4 miles
Clouds
  • Overcast at 3,000' AGL
Conditions
  • Light Snow